Time;durP1;ratioP1;P1;durP2;ratioP2;P2;SDS_P1;SDS_P2;PMS_P1;PMS_P2;Temp;Humidity;BMP_temperature;BMP_pressure;BME280_temperature;BME280_humidity;BME280_pressure;Samples;Min_cycle;Max_cycle;Signal;HPM_P1;HPM_P2
2023/06/13 00:01:52;;;;;;;7.87;4.97;;;;;;;18.91;60.40;99817.38;5015644;28;20356;-60
2023/06/13 00:04:23;;;;;;;5.83;4.97;;;;;;;18.90;59.47;99816.50;5012953;28;20198;-61
2023/06/13 00:06:56;;;;;;;5.37;4.47;;;;;;;18.87;58.62;99816.81;5011172;28;20615;-60
2023/06/13 00:09:23;;;;;;;5.80;4.50;;;;;;;18.89;58.81;99812.28;5011965;28;20274;-61
2023/06/13 00:11:51;;;;;;;7.13;4.80;;;;;;;18.93;58.51;99805.00;5003053;28;20236;-60
2023/06/13 00:14:21;;;;;;;12.47;5.17;;;;;;;18.84;58.02;99815.31;5013413;28;20242;-61
2023/06/13 00:16:47;;;;;;;4.43;4.03;;;;;;;18.79;57.15;99816.72;5013930;28;20711;-61
2023/06/13 00:19:13;;;;;;;8.13;4.90;;;;;;;18.78;57.78;99808.09;5015869;28;20194;-60
2023/06/13 00:21:38;;;;;;;5.87;5.13;;;;;;;18.76;57.65;99815.22;5017820;28;20603;-60
2023/06/13 00:24:04;;;;;;;6.33;4.77;;;;;;;18.75;57.67;99810.97;5019309;28;20190;-61
2023/06/13 00:26:30;;;;;;;5.60;5.00;;;;;;;18.69;58.22;99819.34;5014753;28;20305;-60
2023/06/13 00:28:55;;;;;;;5.07;4.20;;;;;;;18.59;57.92;99818.56;5015774;28;20624;-60
2023/06/13 00:31:20;;;;;;;8.13;4.60;;;;;;;18.54;57.85;99825.03;5015204;28;20702;-61
2023/06/13 00:33:50;;;;;;;6.97;5.20;;;;;;;18.56;58.15;99827.50;5020804;28;20680;-60
2023/06/13 00:36:16;;;;;;;4.43;4.03;;;;;;;18.54;57.83;99826.81;5014511;28;20288;-60
2023/06/13 00:38:42;;;;;;;5.10;4.53;;;;;;;18.50;58.43;99828.06;5015710;28;20193;-60
2023/06/13 00:41:08;;;;;;;5.83;4.83;;;;;;;18.45;58.59;99825.06;5013557;28;20262;-59
2023/06/13 00:43:34;;;;;;;4.63;4.23;;;;;;;18.43;59.38;99825.22;5014275;28;20187;-60
2023/06/13 00:46:00;;;;;;;6.83;5.10;;;;;;;18.43;58.76;99822.63;5014704;28;20261;-60
2023/06/13 00:48:26;;;;;;;6.40;4.67;;;;;;;18.38;58.77;99820.44;5013750;28;20573;-60
2023/06/13 00:50:52;;;;;;;6.40;5.03;;;;;;;18.37;58.03;99823.19;5011052;28;20225;-60
2023/06/13 00:53:19;;;;;;;5.33;4.83;;;;;;;18.38;58.29;99820.44;5024158;28;20183;-60
2023/06/13 00:55:46;;;;;;;5.90;5.30;;;;;;;18.32;59.03;99826.19;5014223;28;20229;-60
2023/06/13 00:58:12;;;;;;;5.37;4.60;;;;;;;18.24;59.53;99828.66;5015039;28;20217;-60
2023/06/13 01:00:39;;;;;;;4.80;4.43;;;;;;;18.23;59.56;99821.81;5009179;28;20268;-60
2023/06/13 01:03:09;;;;;;;5.73;4.80;;;;;;;18.14;60.51;99830.47;5025461;28;20183;-60
2023/06/13 01:05:36;;;;;;;8.30;5.10;;;;;;;18.13;60.13;99826.22;5014279;28;20179;-60
2023/06/13 01:08:06;;;;;;;5.67;5.17;;;;;;;18.06;60.89;99832.00;5015088;28;20236;-60
2023/06/13 01:10:32;;;;;;;5.60;4.90;;;;;;;18.08;61.15;99825.81;5008223;28;20233;-60
2023/06/13 01:13:29;;;;;;;6.60;4.63;;;;;;;18.05;60.14;99825.13;5026276;28;20179;-61
2023/06/13 01:16:01;;;;;;;5.33;4.63;;;;;;;18.02;60.75;99819.38;4994544;28;20239;-60
2023/06/13 01:18:30;;;;;;;6.57;5.00;;;;;;;18.05;60.85;99819.13;5012250;28;20179;-60
2023/06/13 01:21:00;;;;;;;7.83;4.53;;;;;;;18.01;61.28;99821.19;5011427;28;20248;-60
2023/06/13 01:23:38;;;;;;;6.57;4.97;;;;;;;18.00;61.03;99816.13;5022260;28;20246;-61
2023/06/13 01:26:07;;;;;;;6.70;5.20;;;;;;;17.93;61.14;99821.00;5013318;28;20207;-60
2023/06/13 01:28:33;;;;;;;7.97;4.30;;;;;;;17.86;61.57;99825.13;5001714;28;20607;-59
2023/06/13 01:31:01;;;;;;;5.27;4.77;;;;;;;17.85;62.09;99813.91;5011503;28;20238;-60
2023/06/13 01:33:26;;;;;;;5.90;4.80;;;;;;;17.84;63.11;99820.06;5022312;28;20273;-60
2023/06/13 01:35:52;;;;;;;5.10;4.60;;;;;;;17.79;63.33;99813.63;5013956;28;20604;-61
2023/06/13 01:38:17;;;;;;;4.53;4.13;;;;;;;17.74;63.14;99814.03;5014193;28;20685;-60
2023/06/13 01:40:43;;;;;;;4.87;4.47;;;;;;;17.60;63.88;99812.69;5009339;28;20563;-59
2023/06/13 01:43:08;;;;;;;4.90;4.40;;;;;;;17.68;64.92;99814.59;5024454;28;20543;-61
2023/06/13 01:45:33;;;;;;;6.87;4.70;;;;;;;17.65;63.71;99813.09;5013773;28;20183;-60
2023/06/13 01:48:20;;;;;;;6.23;4.47;;;;;;;17.52;65.32;99809.94;5014335;28;20218;-60
2023/06/13 01:50:50;;;;;;;5.20;4.50;;;;;;;17.43;66.02;99817.56;5008896;28;20221;-61
2023/06/13 01:53:27;;;;;;;5.37;4.77;;;;;;;17.36;66.19;99813.06;5022867;28;20558;-60
2023/06/13 01:55:57;;;;;;;5.93;5.37;;;;;;;17.35;67.00;99816.59;5013441;28;20543;-60
2023/06/13 01:58:26;;;;;;;5.47;4.90;;;;;;;17.30;68.10;99813.59;5013936;28;20669;-61
2023/06/13 02:00:55;;;;;;;4.97;4.47;;;;;;;17.34;67.94;99809.75;5009997;28;20225;-61
2023/06/13 02:03:21;;;;;;;5.93;4.50;;;;;;;17.31;67.23;99810.03;5022322;28;20198;-61
2023/06/13 02:05:48;;;;;;;6.23;4.27;;;;;;;17.25;67.54;99804.44;5012983;28;20175;-61
2023/06/13 02:08:13;;;;;;;4.47;4.03;;;;;;;17.16;67.54;99807.81;5013916;28;20191;-60
2023/06/13 02:10:38;;;;;;;5.73;4.57;;;;;;;17.18;67.64;99816.31;5008196;28;20240;-59
2023/06/13 02:13:05;;;;;;;5.03;4.53;;;;;;;17.19;66.75;99812.75;5024293;28;20175;-60
2023/06/13 02:15:30;;;;;;;6.83;4.07;;;;;;;17.22;66.92;99809.88;5012931;28;20182;-59
2023/06/13 02:17:55;;;;;;;7.67;4.43;;;;;;;17.22;66.44;99794.28;5013677;28;20701;-60
2023/06/13 02:20:21;;;;;;;5.30;4.80;;;;;;;17.21;66.08;99797.84;5005507;28;20227;-60
2023/06/13 02:22:46;;;;;;;5.30;4.27;;;;;;;17.21;67.31;99803.03;5026353;28;20229;-61
2023/06/13 02:25:11;;;;;;;5.37;4.47;;;;;;;17.16;67.31;99805.22;5012824;28;20289;-61
2023/06/13 02:27:38;;;;;;;6.50;4.57;;;;;;;17.15;67.78;99800.16;5012254;28;20205;-59
2023/06/13 02:30:04;;;;;;;5.33;4.83;;;;;;;17.09;68.07;99802.34;5004975;28;20574;-60
2023/06/13 02:32:29;;;;;;;5.37;4.67;;;;;;;17.10;68.33;99801.38;5027966;28;20190;-60
2023/06/13 02:34:55;;;;;;;6.00;4.43;;;;;;;17.05;69.25;99802.72;5012840;28;20182;-61
2023/06/13 02:37:20;;;;;;;5.47;4.63;;;;;;;17.04;69.48;99806.28;5012861;28;20610;-60
2023/06/13 02:39:45;;;;;;;5.30;4.30;;;;;;;16.99;69.83;99806.66;5011981;28;20190;-61
2023/06/13 02:42:10;;;;;;;5.27;4.40;;;;;;;17.04;69.84;99806.28;5018337;28;20301;-60
2023/06/13 02:44:36;;;;;;;5.50;4.87;;;;;;;16.97;70.34;99795.59;5012621;28;20195;-61
2023/06/13 02:47:01;;;;;;;6.23;4.60;;;;;;;16.99;70.16;99801.47;5012665;28;20183;-60
2023/06/13 02:49:26;;;;;;;5.80;4.27;;;;;;;16.89;71.41;99798.00;5012579;28;20195;-60
2023/06/13 02:51:52;;;;;;;6.10;4.37;;;;;;;16.88;71.58;99799.78;5016877;28;20264;-60
2023/06/13 02:54:18;;;;;;;5.40;4.40;;;;;;;16.85;71.33;99802.63;5014027;28;20182;-60
2023/06/13 02:56:43;;;;;;;7.37;4.40;;;;;;;16.94;70.75;99806.25;5005212;28;20645;-60
2023/06/13 02:59:08;;;;;;;4.87;4.37;;;;;;;16.88;72.02;99807.59;5012658;28;20567;-59
2023/06/13 03:01:33;;;;;;;4.50;4.10;;;;;;;16.87;72.98;99800.75;4991893;28;20276;-61
2023/06/13 03:03:59;;;;;;;5.63;4.30;;;;;;;16.77;73.44;99810.28;5012023;28;20183;-60
2023/06/13 03:06:24;;;;;;;9.57;4.37;;;;;;;16.81;73.84;99813.41;5011977;28;20179;-60
2023/06/13 03:08:52;;;;;;;4.30;4.00;;;;;;;16.71;74.76;99814.22;5012486;28;20668;-61
2023/06/13 03:11:17;;;;;;;5.00;4.53;;;;;;;16.73;75.51;99814.06;5011943;28;20226;-61
2023/06/13 03:13:43;;;;;;;6.70;4.47;;;;;;;16.80;75.21;99815.19;5018126;28;20672;-61
2023/06/13 03:16:08;;;;;;;8.10;4.83;;;;;;;16.59;76.78;99810.06;5010170;28;20234;-60
2023/06/13 03:18:34;;;;;;;6.70;4.40;;;;;;;16.63;76.77;99811.44;5010524;28;20190;-60
2023/06/13 03:21:00;;;;;;;5.23;4.73;;;;;;;16.59;77.57;99810.88;5009340;28;20730;-60
2023/06/13 03:23:25;;;;;;;7.13;4.67;;;;;;;16.59;78.00;99816.06;5019969;28;20273;-60
2023/06/13 03:25:50;;;;;;;5.57;5.07;;;;;;;16.56;78.70;99818.09;5010697;28;20214;-60
2023/06/13 03:28:15;;;;;;;4.90;4.50;;;;;;;16.54;79.79;99817.41;5012090;28;20580;-61
2023/06/13 03:30:41;;;;;;;7.47;4.87;;;;;;;16.57;79.64;99817.16;4981973;28;20241;-60
2023/06/13 03:33:06;;;;;;;7.73;5.07;;;;;;;16.54;79.24;99814.81;5011172;28;20211;-60
2023/06/13 03:35:32;;;;;;;5.07;4.47;;;;;;;16.48;79.52;99817.94;5011659;28;20642;-59
2023/06/13 03:37:57;;;;;;;4.90;4.50;;;;;;;16.43;79.58;99815.72;5012241;28;20669;-61
2023/06/13 03:40:22;;;;;;;5.87;4.40;;;;;;;16.49;78.68;99817.00;5004502;28;20639;-60
2023/06/13 03:42:47;;;;;;;5.03;4.30;;;;;;;16.43;79.62;99816.56;5024561;28;20187;-60
2023/06/13 03:45:15;;;;;;;6.43;4.07;;;;;;;16.40;80.02;99809.00;5011675;28;20254;-60
2023/06/13 03:47:40;;;;;;;4.87;4.43;;;;;;;16.39;80.72;99806.56;5011909;28;20179;-60
2023/06/13 03:50:06;;;;;;;5.93;4.17;;;;;;;16.44;80.97;99804.38;5002081;28;20182;-61
2023/06/13 03:52:31;;;;;;;11.67;5.50;;;;;;;16.59;80.30;99813.47;5026370;28;20289;-60
2023/06/13 03:54:57;;;;;;;7.13;4.50;;;;;;;16.56;79.94;99816.34;5011948;28;20174;-62
2023/06/13 03:57:22;;;;;;;6.00;4.10;;;;;;;16.58;80.16;99811.00;5004109;28;20182;-60
2023/06/13 03:59:48;;;;;;;4.53;4.13;;;;;;;16.61;80.47;99811.56;5011987;28;20661;-60
2023/06/13 04:02:13;;;;;;;4.83;4.33;;;;;;;16.61;79.95;99810.75;5016735;28;20214;-61
2023/06/13 04:04:42;;;;;;;5.30;4.80;;;;;;;16.59;81.26;99812.66;5010511;28;20190;-60
2023/06/13 04:07:08;;;;;;;9.93;4.80;;;;;;;16.56;80.83;99815.50;5011551;28;20198;-61
2023/06/13 04:09:34;;;;;;;8.17;4.17;;;;;;;16.48;81.39;99813.53;5012036;28;20321;-60
2023/06/13 04:11:59;;;;;;;4.80;4.27;;;;;;;16.48;82.28;99810.94;5016326;28;20760;-60
2023/06/13 04:14:26;;;;;;;5.70;4.80;;;;;;;16.60;81.42;99814.31;5011887;28;20599;-60
2023/06/13 04:16:52;;;;;;;6.93;4.70;;;;;;;16.63;81.19;99814.03;5011179;28;20317;-59
2023/06/13 04:19:18;;;;;;;8.27;4.50;;;;;;;16.64;81.31;99820.88;5011665;28;20222;-59
2023/06/13 04:21:46;;;;;;;5.40;4.90;;;;;;;16.65;82.24;99824.31;5014548;28;20571;-60
2023/06/13 04:24:12;;;;;;;4.80;4.30;;;;;;;16.71;81.62;99832.38;5013816;28;20178;-60
2023/06/13 04:26:37;;;;;;;8.80;4.30;;;;;;;16.69;80.80;99829.09;5011185;28;20211;-60
2023/06/13 04:29:03;;;;;;;4.97;4.40;;;;;;;16.73;80.24;99837.44;5011783;28;20610;-60
2023/06/13 04:31:34;;;;;;;4.63;4.23;;;;;;;16.72;81.31;99839.22;5012421;28;20498;-61
2023/06/13 04:34:03;;;;;;;4.70;4.30;;;;;;;16.87;80.97;99841.47;5015418;28;20194;-60
2023/06/13 04:36:28;;;;;;;6.47;4.07;;;;;;;17.05;80.26;99844.31;5010899;28;20179;-60
2023/06/13 04:38:53;;;;;;;6.30;4.40;;;;;;;17.05;79.71;99841.72;5011941;28;20665;-60
2023/06/13 04:41:19;;;;;;;4.87;4.30;;;;;;;16.93;80.01;99844.41;5011299;28;20224;-60
2023/06/13 04:43:45;;;;;;;7.37;4.10;;;;;;;16.97;80.43;99847.56;5017203;28;20190;-60
2023/06/13 04:46:11;;;;;;;4.87;3.93;;;;;;;17.15;79.98;99844.34;5010809;28;20255;-61
2023/06/13 04:48:37;;;;;;;7.27;5.10;;;;;;;17.30;77.75;99848.19;5011358;28;20550;-61
2023/06/13 04:51:03;;;;;;;5.07;4.53;;;;;;;17.20;77.76;99853.38;5008751;28;20333;-60
2023/06/13 04:53:33;;;;;;;5.17;4.57;;;;;;;17.37;77.84;99856.28;5019132;28;20638;-60
2023/06/13 04:55:58;;;;;;;5.00;4.03;;;;;;;17.38;77.70;99857.94;5005398;28;20180;-60
2023/06/13 04:58:24;;;;;;;6.10;4.90;;;;;;;17.51;76.59;99861.09;5009643;28;20642;-60
2023/06/13 05:00:52;;;;;;;4.33;3.93;;;;;;;17.63;73.84;99861.00;5007058;28;20573;-61
2023/06/13 05:03:19;;;;;;;5.43;4.93;;;;;;;17.68;74.56;99864.81;5023716;28;20202;-60
2023/06/13 05:05:45;;;;;;;4.23;3.83;;;;;;;17.79;74.20;99870.88;5014443;28;20194;-60
2023/06/13 05:08:13;;;;;;;7.03;4.40;;;;;;;17.91;74.33;99865.38;5015211;28;20187;-60
2023/06/13 05:10:39;;;;;;;5.30;4.10;;;;;;;17.94;72.59;99868.69;5009269;28;20454;-60
2023/06/13 05:13:04;;;;;;;10.33;4.07;;;;;;;17.89;72.18;99862.09;5013641;28;20653;-60
2023/06/13 05:15:30;;;;;;;5.27;4.20;;;;;;;18.00;71.57;99863.78;5013900;28;20194;-61
2023/06/13 05:17:56;;;;;;;5.97;4.33;;;;;;;18.02;69.42;99867.06;5015196;28;20183;-61
2023/06/13 05:20:25;;;;;;;4.80;3.90;;;;;;;18.09;69.80;99867.31;5007132;28;20229;-60
2023/06/13 05:22:52;;;;;;;4.23;3.67;;;;;;;18.33;69.63;99868.66;5027208;28;20210;-61
2023/06/13 05:25:17;;;;;;;6.73;4.10;;;;;;;18.29;69.61;99873.31;5001732;28;20685;-60
2023/06/13 05:27:43;;;;;;;4.53;3.80;;;;;;;18.20;69.63;99876.78;5014495;28;20179;-61
2023/06/13 05:30:09;;;;;;;5.67;3.93;;;;;;;18.27;68.91;99887.44;5003878;28;20187;-60
2023/06/13 05:32:34;;;;;;;4.60;3.93;;;;;;;18.32;68.98;99886.09;5028516;28;20206;-60
2023/06/13 05:35:00;;;;;;;4.00;3.60;;;;;;;18.37;66.75;99881.28;5013832;28;20799;-60
2023/06/13 05:37:25;;;;;;;9.13;3.90;;;;;;;18.62;67.67;99881.63;5014425;28;20666;-60
2023/06/13 05:39:51;;;;;;;10.20;4.60;;;;;;;18.90;64.84;99888.69;5014514;28;20281;-60
2023/06/13 05:42:16;;;;;;;5.67;4.20;;;;;;;18.84;64.00;99882.25;5019597;28;20319;-60
2023/06/13 05:44:41;;;;;;;5.20;3.87;;;;;;;18.83;65.34;99878.81;5014278;28;20179;-60
2023/06/13 05:47:07;;;;;;;5.30;3.77;;;;;;;19.21;64.06;99889.25;5014171;28;20190;-60
2023/06/13 05:49:32;;;;;;;10.70;4.20;;;;;;;19.68;61.70;99878.69;5014211;28;20627;-61
2023/06/13 05:51:57;;;;;;;7.70;4.50;;;;;;;19.99;58.26;99878.34;5005882;28;20226;-60
2023/06/13 05:54:23;;;;;;;6.00;4.20;;;;;;;19.95;54.77;99889.22;5014439;28;20233;-61
2023/06/13 05:56:48;;;;;;;8.03;4.33;;;;;;;19.98;56.26;99879.31;5006436;28;20203;-61
2023/06/13 05:59:14;;;;;;;7.40;4.43;;;;;;;20.39;54.81;99878.81;5013983;28;20193;-61
2023/06/13 06:01:42;;;;;;;5.30;3.93;;;;;;;20.70;52.25;99877.50;5016564;28;20226;-61
2023/06/13 06:04:07;;;;;;;9.57;4.20;;;;;;;21.25;49.84;99887.56;5016767;28;20270;-61
2023/06/13 06:06:32;;;;;;;4.13;3.73;;;;;;;22.08;47.90;99885.13;5013320;28;20375;-62
2023/06/13 06:08:57;;;;;;;5.03;3.67;;;;;;;23.14;43.78;99885.06;5013988;28;20179;-60
2023/06/13 06:11:23;;;;;;;4.67;3.80;;;;;;;24.38;41.34;99889.53;5014640;28;20317;-60
2023/06/13 06:13:48;;;;;;;6.53;3.60;;;;;;;23.68;40.85;99889.56;5018549;28;20195;-60
2023/06/13 06:16:13;;;;;;;8.50;3.60;;;;;;;25.10;38.41;99893.34;5013459;28;20265;-60
2023/06/13 06:18:38;;;;;;;4.50;3.63;;;;;;;25.51;35.75;99897.28;5014066;28;20189;-61
2023/06/13 06:21:04;;;;;;;7.88;4.03;;;;;;;26.17;34.98;99898.91;5011983;28;20242;-61
2023/06/13 06:23:30;;;;;;;6.18;3.55;;;;;;;25.85;34.96;99914.22;5021104;28;20229;-60
2023/06/13 06:25:56;;;;;;;6.32;3.13;;;;;;;26.43;33.69;99903.56;5013506;28;20238;-61
2023/06/13 06:28:21;;;;;;;8.75;3.60;;;;;;;25.64;35.35;99899.22;5013391;28;20191;-61
2023/06/13 06:30:46;;;;;;;5.88;3.60;;;;;;;24.87;36.41;99899.56;5009234;28;20612;-60
2023/06/13 06:33:11;;;;;;;4.22;3.42;;;;;;;25.33;35.99;99892.38;5022927;28;20249;-60
2023/06/13 06:35:37;;;;;;;6.10;3.15;;;;;;;25.69;34.79;99895.03;5013093;28;20175;-60
2023/06/13 06:38:02;;;;;;;4.85;3.50;;;;;;;25.94;34.61;99892.81;5013517;28;20541;-60
2023/06/13 06:40:27;;;;;;;7.80;3.42;;;;;;;25.14;35.58;99892.81;5006574;28;20248;-60
2023/06/13 06:42:53;;;;;;;9.98;3.78;;;;;;;25.22;35.25;99902.41;5024914;28;20190;-60
2023/06/13 06:45:18;;;;;;;11.02;3.58;;;;;;;24.55;36.36;99896.25;5013083;28;20619;-60
2023/06/13 06:47:43;;;;;;;4.70;3.50;;;;;;;24.61;35.45;99895.53;5012882;28;20190;-60
2023/06/13 06:50:09;;;;;;;5.45;3.25;;;;;;;25.50;35.30;99899.06;5003585;28;20191;-60
2023/06/13 06:52:35;;;;;;;4.55;3.15;;;;;;;25.72;34.63;99897.28;5026722;28;20286;-60
2023/06/13 06:55:00;;;;;;;6.32;3.05;;;;;;;25.34;34.43;99899.28;5012157;28;20193;-61
2023/06/13 06:57:26;;;;;;;7.70;2.97;;;;;;;26.87;33.00;99889.22;5004945;28;20232;-60
2023/06/13 06:59:52;;;;;;;5.65;3.72;;;;;;;27.87;31.84;99890.53;5012829;28;20191;-60
2023/06/13 07:02:17;;;;;;;5.68;4.25;;;;;;;26.55;32.74;99902.00;4989187;28;20222;-60
2023/06/13 07:04:42;;;;;;;6.47;3.55;;;;;;;26.21;32.97;99903.63;5004297;28;20179;-60
2023/06/13 07:07:07;;;;;;;5.68;2.95;;;;;;;26.79;32.04;99905.22;5011911;28;20206;-60
2023/06/13 07:09:33;;;;;;;4.30;3.65;;;;;;;27.13;32.49;99894.81;5012574;28;20194;-60
2023/06/13 07:11:58;;;;;;;6.93;3.55;;;;;;;26.53;31.98;99901.41;5016830;28;20712;-60
2023/06/13 07:14:26;;;;;;;4.75;3.38;;;;;;;25.97;33.64;99899.53;5012533;28;20230;-60
2023/06/13 07:16:54;;;;;;;3.90;3.25;;;;;;;27.73;31.90;99897.63;5015316;28;20233;-60
2023/06/13 07:19:19;;;;;;;6.03;3.28;;;;;;;27.87;30.26;99898.44;5013653;28;20221;-60
2023/06/13 07:21:44;;;;;;;4.43;2.90;;;;;;;27.69;30.89;99902.50;5014993;28;20249;-61
2023/06/13 07:24:10;;;;;;;4.60;3.67;;;;;;;28.69;29.89;99903.53;5014051;28;20186;-61
2023/06/13 07:26:35;;;;;;;5.22;3.17;;;;;;;29.07;28.65;99913.34;5011362;28;20202;-60
2023/06/13 07:29:00;;;;;;;4.43;3.25;;;;;;;29.75;28.90;99919.13;5012316;28;20182;-60
2023/06/13 07:31:26;;;;;;;7.97;3.58;;;;;;;30.52;27.05;99926.09;4981469;28;20260;-60
2023/06/13 07:33:51;;;;;;;8.48;3.60;;;;;;;29.09;28.51;99918.47;5012027;28;20634;-61
2023/06/13 07:36:16;;;;;;;6.60;3.40;;;;;;;28.61;29.64;99916.94;5011518;28;20205;-60
2023/06/13 07:38:42;;;;;;;5.80;3.28;;;;;;;30.66;26.71;99922.25;5012305;28;20557;-61
2023/06/13 07:41:07;;;;;;;8.15;3.65;;;;;;;29.37;28.26;99919.97;5010181;28;20220;-60
2023/06/13 07:43:32;;;;;;;4.57;3.05;;;;;;;27.81;29.85;99917.75;5018987;28;20198;-60
2023/06/13 07:45:57;;;;;;;5.03;3.28;;;;;;;28.31;29.62;99910.28;5011598;28;20629;-61
2023/06/13 07:48:23;;;;;;;7.47;3.20;;;;;;;28.20;29.87;99908.25;5011998;28;20174;-61
2023/06/13 07:50:48;;;;;;;7.65;3.15;;;;;;;27.99;30.23;99910.03;5007758;28;20226;-60
2023/06/13 07:53:13;;;;;;;4.63;3.40;;;;;;;28.69;29.42;99897.41;5021540;28;20722;-60
2023/06/13 07:55:40;;;;;;;5.20;3.10;;;;;;;29.68;27.86;99902.47;5008419;28;20209;-61
2023/06/13 07:58:05;;;;;;;5.18;3.30;;;;;;;27.86;29.75;99904.78;5007800;28;20654;-60
2023/06/13 08:00:31;;;;;;;7.18;3.63;;;;;;;28.54;29.33;99894.97;5005439;28;20230;-60
2023/06/13 08:02:56;;;;;;;8.23;3.22;;;;;;;29.91;27.68;99896.63;5023782;28;20190;-61
2023/06/13 08:05:21;;;;;;;5.82;3.33;;;;;;;30.14;27.67;99890.69;5011433;28;20205;-61
2023/06/13 08:07:47;;;;;;;4.53;3.30;;;;;;;29.85;27.06;99887.66;5012085;28;20190;-61
2023/06/13 08:10:12;;;;;;;7.53;3.22;;;;;;;29.85;27.32;99895.59;5002576;28;20186;-61
2023/06/13 08:12:39;;;;;;;12.75;3.50;;;;;;;28.78;28.02;99888.25;5025663;28;20245;-61
2023/06/13 08:15:05;;;;;;;6.60;3.63;;;;;;;29.05;28.71;99886.28;5011276;28;20241;-60
2023/06/13 08:17:30;;;;;;;3.95;3.30;;;;;;;29.48;27.94;99886.69;5011432;28;20704;-60
2023/06/13 08:19:56;;;;;;;4.47;3.15;;;;;;;30.11;26.87;99889.28;5011632;28;20187;-59
2023/06/13 08:22:21;;;;;;;9.90;3.63;;;;;;;29.23;26.96;99890.88;5016544;28;20229;-60
2023/06/13 08:24:47;;;;;;;5.30;3.28;;;;;;;28.34;27.96;99887.88;5011254;28;20179;-60
2023/06/13 08:27:15;;;;;;;4.40;3.05;;;;;;;29.14;26.98;99889.50;5011332;28;20183;-61
2023/06/13 08:29:41;;;;;;;6.35;3.15;;;;;;;29.49;26.70;99888.34;5011771;28;20190;-60
2023/06/13 08:32:06;;;;;;;5.82;3.00;;;;;;;29.12;26.74;99878.31;5016822;28;20230;-61
2023/06/13 08:34:32;;;;;;;5.38;3.25;;;;;;;28.72;27.28;99871.34;5011357;28;20224;-61
2023/06/13 08:36:57;;;;;;;4.93;3.28;;;;;;;29.88;26.28;99875.78;5012685;28;20552;-60
2023/06/13 08:39:23;;;;;;;5.53;3.13;;;;;;;29.95;26.66;99872.09;5015392;28;20179;-60
2023/06/13 08:41:49;;;;;;;11.00;3.28;;;;;;;29.44;27.11;99881.81;5019135;28;20333;-60
2023/06/13 08:44:16;;;;;;;4.00;2.85;;;;;;;31.11;25.36;99876.00;5016906;28;20261;-61
2023/06/13 08:46:41;;;;;;;3.92;3.47;;;;;;;31.58;24.35;99883.31;5015095;28;20187;-60
2023/06/13 08:49:06;;;;;;;3.58;3.25;;;;;;;31.14;25.03;99877.41;5015299;28;20703;-60
2023/06/13 08:51:32;;;;;;;6.50;3.25;;;;;;;29.87;25.46;99871.53;5016588;28;20234;-60
2023/06/13 08:54:02;;;;;;;3.72;3.25;;;;;;;29.55;25.78;99868.94;5018939;28;20179;-59
2023/06/13 08:56:33;;;;;;;3.08;2.88;;;;;;;30.43;24.78;99861.84;5007391;28;20187;-61
2023/06/13 08:59:08;;;;;;;6.28;3.72;;;;;;;29.03;25.72;99859.22;5015438;28;20309;-61
2023/06/13 09:01:35;;;;;;;7.63;2.80;;;;;;;29.18;25.79;99866.06;5016564;28;20237;-61
2023/06/13 09:04:01;;;;;;;8.35;3.40;;;;;;;30.03;25.49;99860.41;5018488;28;20179;-60
2023/06/13 09:06:28;;;;;;;4.63;3.28;;;;;;;30.05;25.03;99841.63;5014274;28;20186;-61
2023/06/13 09:08:55;;;;;;;4.00;3.30;;;;;;;31.19;24.19;99846.44;5014892;28;20186;-60
2023/06/13 09:11:20;;;;;;;5.85;3.10;;;;;;;33.04;22.60;99848.97;5014801;28;20540;-61
2023/06/13 09:13:50;;;;;;;6.72;3.20;;;;;;;31.80;22.52;99857.00;5020475;28;20187;-61
2023/06/13 09:16:16;;;;;;;6.50;3.30;;;;;;;30.72;23.54;99847.03;5014141;28;20226;-61
2023/06/13 09:18:43;;;;;;;5.63;2.75;;;;;;;30.55;23.77;99846.03;5014781;28;20665;-61
2023/06/13 09:21:10;;;;;;;6.93;3.28;;;;;;;29.99;25.02;99842.50;5012907;28;20241;-61
2023/06/13 09:23:36;;;;;;;5.47;3.22;;;;;;;30.81;24.71;99844.09;5021674;28;20297;-61
2023/06/13 09:26:02;;;;;;;10.38;4.03;;;;;;;29.25;26.35;99843.81;5013096;28;20206;-61
2023/06/13 09:28:33;;;;;;;6.20;3.30;;;;;;;31.10;24.74;99834.53;5014584;28;20190;-61
2023/06/13 09:30:58;;;;;;;5.88;3.40;;;;;;;32.01;23.26;99846.84;5011677;28;20230;-61
2023/06/13 09:33:24;;;;;;;3.35;3.05;;;;;;;31.19;23.00;99843.00;5022771;28;20531;-61
2023/06/13 09:35:50;;;;;;;4.55;2.90;;;;;;;30.65;22.26;99856.94;5012457;28;20277;-61
2023/06/13 09:38:20;;;;;;;5.22;3.03;;;;;;;30.47;22.34;99854.28;5014440;28;20197;-60
2023/06/13 09:40:47;;;;;;;4.00;3.38;;;;;;;29.85;22.31;99839.94;5009813;28;20221;-60
2023/06/13 09:43:15;;;;;;;5.13;3.53;;;;;;;29.38;23.62;99844.78;5023978;28;20528;-61
2023/06/13 09:45:43;;;;;;;4.60;3.00;;;;;;;29.40;22.84;99835.59;5013746;28;20194;-61
2023/06/13 09:48:08;;;;;;;4.38;3.13;;;;;;;29.62;22.98;99843.16;5013774;28;20189;-61
2023/06/13 09:50:36;;;;;;;8.88;3.22;;;;;;;29.14;23.56;99831.25;5007466;28;20225;-61
2023/06/13 09:53:02;;;;;;;8.10;3.38;;;;;;;29.73;22.96;99829.25;5025014;28;20642;-61
2023/06/13 09:55:27;;;;;;;5.60;3.40;;;;;;;28.50;23.70;99823.16;5012213;28;20195;-60
2023/06/13 09:57:53;;;;;;;9.52;3.33;;;;;;;28.00;24.26;99826.28;5008292;28;20654;-60
2023/06/13 10:00:20;;;;;;;6.60;3.30;;;;;;;28.57;24.25;99821.28;5005533;28;20186;-60
2023/06/13 10:02:46;;;;;;;11.32;3.50;;;;;;;29.20;24.05;99817.16;5026696;28;20190;-61
2023/06/13 10:05:14;;;;;;;6.45;3.25;;;;;;;30.88;23.23;99807.66;5013331;28;20276;-61
2023/06/13 10:07:40;;;;;;;4.68;3.05;;;;;;;28.82;23.33;99810.03;5014073;28;20198;-61
2023/06/13 10:10:06;;;;;;;4.57;3.33;;;;;;;27.91;25.25;99799.25;4998561;28;20179;-61
2023/06/13 10:12:32;;;;;;;4.57;3.45;;;;;;;28.55;24.20;99793.44;5020850;28;20194;-60
2023/06/13 10:15:01;;;;;;;5.53;3.10;;;;;;;28.55;24.41;99804.81;5013272;28;20185;-61
2023/06/13 10:17:35;;;;;;;5.85;3.67;;;;;;;29.48;23.70;99793.97;5013387;28;20232;-61
2023/06/13 10:20:04;;;;;;;4.53;3.10;;;;;;;30.22;22.88;99799.44;5001783;28;20179;-60
2023/06/13 10:22:30;;;;;;;5.57;3.58;;;;;;;29.07;24.01;99794.19;5001927;28;20231;-60
2023/06/13 10:24:56;;;;;;;7.93;3.17;;;;;;;28.97;24.43;99802.59;4992533;28;20551;-60
2023/06/13 10:27:23;;;;;;;4.93;3.42;;;;;;;28.94;24.70;99807.53;5008081;28;20687;-61
2023/06/13 10:29:58;;;;;;;4.70;2.92;;;;;;;28.63;24.41;99806.44;5013539;28;20183;-60
2023/06/13 10:32:42;;;;;;;7.80;3.33;;;;;;;29.43;23.68;99806.00;5018377;28;20381;-61
2023/06/13 10:35:30;;;;;;;6.13;3.67;;;;;;;29.12;23.95;99798.88;5012992;28;20575;-61
2023/06/13 10:37:59;;;;;;;3.55;2.95;;;;;;;29.70;23.82;99808.47;5013425;28;20182;-61
2023/06/13 10:40:46;;;;;;;6.97;3.47;;;;;;;27.89;24.96;99801.28;5005472;28;20233;-61
2023/06/13 10:43:32;;;;;;;4.70;3.45;;;;;;;27.19;26.14;99791.06;5023097;28;20201;-61
2023/06/13 10:46:00;;;;;;;3.78;3.15;;;;;;;26.58;26.58;99788.22;5001275;28;20249;-61
2023/06/13 10:48:42;;;;;;;5.07;2.83;;;;;;;25.89;27.60;99781.13;5012895;28;20205;-60
2023/06/13 10:51:09;;;;;;;4.15;3.75;;;;;;;25.74;28.21;99797.00;5011543;28;20245;-60
2023/06/13 10:53:34;;;;;;;3.45;3.15;;;;;;;25.23;28.49;99782.97;5019498;28;20181;-61
2023/06/13 10:56:02;;;;;;;5.03;3.70;;;;;;;25.44;27.67;99776.91;5006772;28;20175;-60
2023/06/13 10:58:28;;;;;;;7.63;3.05;;;;;;;25.17;28.68;99775.81;5011298;28;20642;-60
2023/06/13 11:00:53;;;;;;;5.75;3.70;;;;;;;25.08;28.28;99777.75;4990989;28;20222;-60
2023/06/13 11:03:19;;;;;;;8.93;3.58;;;;;;;25.27;27.66;99759.72;5001730;28;20208;-60
2023/06/13 11:05:44;;;;;;;5.63;3.17;;;;;;;25.34;28.95;99759.75;5012282;28;20190;-60
2023/06/13 11:08:20;;;;;;;3.92;3.47;;;;;;;25.17;28.41;99759.19;5012759;28;20608;-60
2023/06/13 11:10:48;;;;;;;5.13;3.17;;;;;;;25.12;29.18;99759.78;5008452;28;20237;-60
2023/06/13 11:13:19;;;;;;;5.13;3.40;;;;;;;25.06;29.10;99750.00;5011345;28;20174;-59
2023/06/13 11:15:45;;;;;;;6.35;4.13;;;;;;;25.05;28.91;99756.25;5006905;28;20771;-60
2023/06/13 11:18:10;;;;;;;4.53;3.70;;;;;;;24.93;29.69;99750.66;5011508;28;20190;-60
2023/06/13 11:20:52;;;;;;;4.78;3.78;;;;;;;24.60;29.26;99749.25;5006343;28;20260;-60
2023/06/13 11:23:22;;;;;;;5.47;3.43;;;;;;;24.65;29.73;99748.75;5021566;28;20210;-60
2023/06/13 11:25:48;;;;;;;10.30;3.93;;;;;;;24.73;30.02;99747.81;5011779;28;20573;-60
2023/06/13 11:28:14;;;;;;;6.13;3.23;;;;;;;24.72;28.76;99746.19;5012224;28;20183;-59
2023/06/13 11:30:44;;;;;;;8.50;3.70;;;;;;;24.58;28.92;99747.81;4981515;28;20521;-59
2023/06/13 11:33:11;;;;;;;4.23;3.50;;;;;;;24.61;29.63;99743.00;5011765;28;20296;-60